Time;durP1;ratioP1;P1;durP2;ratioP2;P2;SDS_P1;SDS_P2;PMS_P1;PMS_P2;Temp;Humidity;BMP_temperature;BMP_pressure;BME280_temperature;BME280_humidity;BME280_pressure;Samples;Min_cycle;Max_cycle;Signal;HPM_P1;HPM_P2
2022/08/13 00:00:37;;;;;;;10.57;9.47;;;;;;;18.94;100.00;102028.84;4992526;28;20425;-49
2022/08/13 00:03:14;;;;;;;9.20;8.27;;;;;;;18.91;100.00;102029.28;4992007;28;20846;-46
2022/08/13 00:06:04;;;;;;;11.30;10.20;;;;;;;18.89;100.00;102026.81;4992271;28;20458;-45
2022/08/13 00:08:33;;;;;;;10.00;9.20;;;;;;;18.86;100.00;102019.16;4991505;28;21010;-46
2022/08/13 00:11:01;;;;;;;11.27;10.40;;;;;;;18.86;100.00;102021.84;4992266;28;20441;-47
2022/08/13 00:13:34;;;;;;;10.80;9.90;;;;;;;18.85;100.00;102028.28;4991935;28;20445;-50
2022/08/13 00:16:12;;;;;;;10.50;9.60;;;;;;;18.83;100.00;102018.75;4992029;28;20450;-46
2022/08/13 00:18:43;;;;;;;10.00;9.10;;;;;;;18.81;100.00;102007.34;4991876;28;20470;-43
2022/08/13 00:21:13;;;;;;;12.77;11.57;;;;;;;18.81;100.00;102016.28;4992172;28;20488;-45
2022/08/13 00:23:43;;;;;;;10.23;9.33;;;;;;;18.77;100.00;102009.66;4991837;28;20438;-46
2022/08/13 00:26:27;;;;;;;13.17;12.00;;;;;;;18.77;100.00;102015.06;4992196;28;20454;-46
2022/08/13 00:29:01;;;;;;;13.47;12.37;;;;;;;18.75;100.00;102009.88;4991602;28;20528;-49
2022/08/13 00:31:31;;;;;;;14.47;13.03;;;;;;;18.73;100.00;102005.72;4992150;28;20504;-45
2022/08/13 00:33:59;;;;;;;14.17;12.77;;;;;;;18.72;100.00;102010.31;4989905;28;20433;-45
2022/08/13 00:36:28;;;;;;;13.50;12.27;;;;;;;18.70;100.00;102014.28;4980229;28;20968;-45
2022/08/13 00:39:05;;;;;;;15.20;14.00;;;;;;;18.68;100.00;102011.81;4990930;28;20469;-46
2022/08/13 00:41:40;;;;;;;14.47;13.17;;;;;;;18.67;100.00;102017.41;4991901;28;20436;-45
2022/08/13 00:44:31;;;;;;;14.60;13.23;;;;;;;18.65;100.00;102014.09;4991680;28;20955;-48
2022/08/13 00:49:49;;;;;;;13.23;11.97;;;;;;;18.62;100.00;102009.97;4992713;28;20466;-45
2022/08/13 00:52:31;;;;;;;13.83;12.40;;;;;;;18.60;100.00;102011.25;4995207;28;20464;-45
2022/08/13 00:55:00;;;;;;;12.70;11.73;;;;;;;18.52;100.00;102008.78;4995232;28;21013;-47
2022/08/13 00:57:28;;;;;;;12.13;11.10;;;;;;;18.43;100.00;102012.78;4994597;28;20449;-49
2022/08/13 00:59:57;;;;;;;10.03;9.13;;;;;;;18.37;100.00;102011.75;4995028;28;20458;-45
2022/08/13 01:02:26;;;;;;;10.60;9.80;;;;;;;18.27;100.00;102013.28;4994913;28;20477;-46
2022/08/13 01:05:01;;;;;;;10.00;9.23;;;;;;;18.22;100.00;102011.22;4995290;28;20441;-43
2022/08/13 01:07:30;;;;;;;12.77;11.67;;;;;;;18.21;100.00;102005.03;4994587;28;20454;-46
2022/08/13 01:10:19;;;;;;;14.53;13.00;;;;;;;18.18;100.00;102015.41;4994877;28;20445;-44
2022/08/13 01:12:51;;;;;;;12.93;11.83;;;;;;;18.14;100.00;102008.78;4994687;28;20983;-50
2022/08/13 01:15:23;;;;;;;13.20;12.00;;;;;;;18.12;100.00;102009.00;4995085;28;20434;-46
2022/08/13 01:17:54;;;;;;;13.37;12.20;;;;;;;18.09;100.00;102014.00;4994491;28;20461;-44
2022/08/13 01:20:27;;;;;;;11.53;10.63;;;;;;;18.07;100.00;102014.22;4994636;28;20536;-49
2022/08/13 01:23:03;;;;;;;17.77;15.67;;;;;;;18.09;100.00;102014.00;4994317;28;20480;-47
2022/08/13 01:25:32;;;;;;;12.87;11.50;;;;;;;18.04;100.00;102005.75;4994781;28;20803;-44
2022/08/13 01:28:22;;;;;;;13.10;12.00;;;;;;;18.00;100.00;102010.72;4994531;28;20462;-46
2022/08/13 01:30:50;;;;;;;15.30;13.73;;;;;;;18.05;100.00;102004.69;5018471;22;20885;-48
2022/08/13 01:33:19;;;;;;;13.07;11.97;;;;;;;18.01;100.00;102009.66;4994272;28;20965;-45
2022/08/13 01:35:49;;;;;;;11.70;10.60;;;;;;;17.97;100.00;102007.63;4994734;28;20440;-47
2022/08/13 01:38:21;;;;;;;16.10;14.80;;;;;;;17.98;100.00;102002.00;5007282;28;20463;-48
2022/08/13 01:40:54;;;;;;;13.10;11.97;;;;;;;17.99;100.00;102002.84;5013850;28;20480;-46
2022/08/13 01:43:22;;;;;;;13.80;12.60;;;;;;;17.99;100.00;101994.75;5013630;28;20472;-48
2022/08/13 01:45:52;;;;;;;15.90;14.40;;;;;;;18.00;100.00;101997.25;5013734;28;20961;-48
2022/08/13 01:51:28;;;;;;;13.60;12.50;;;;;;;18.01;100.00;101992.69;5013840;28;20536;-46
2022/08/13 01:54:12;;;;;;;13.57;12.07;;;;;;;18.00;100.00;101996.41;5013364;28;20437;-45
2022/08/13 01:57:01;;;;;;;14.20;13.00;;;;;;;17.99;100.00;101997.44;5013541;28;20447;-44
2022/08/13 01:59:32;;;;;;;15.30;13.27;;;;;;;17.95;100.00;101994.34;5013038;28;20859;-47
2022/08/13 02:02:21;;;;;;;12.13;11.00;;;;;;;17.90;100.00;101994.16;5013029;28;20468;-49
2022/08/13 02:05:10;;;;;;;11.40;10.60;;;;;;;17.85;100.00;101988.59;5013569;28;20433;-46
2022/08/13 02:07:39;;;;;;;11.50;10.50;;;;;;;17.83;100.00;101995.25;5013167;28;20783;-51
2022/08/13 02:10:28;;;;;;;10.13;9.23;;;;;;;17.80;100.00;101990.28;5013571;28;20448;-44
2022/08/13 02:12:56;;;;;;;12.00;11.07;;;;;;;17.78;100.00;101992.34;5012986;28;20433;-47
2022/08/13 02:15:24;;;;;;;11.87;10.70;;;;;;;17.72;100.00;101999.41;5013399;28;20433;-49
2022/08/13 02:18:14;;;;;;;10.40;9.50;;;;;;;17.67;100.00;101993.84;5012944;28;20858;-47
2022/08/13 02:20:45;;;;;;;11.70;10.50;;;;;;;17.61;100.00;101992.81;5013145;28;20524;-48
2022/08/13 02:23:19;;;;;;;11.33;10.40;;;;;;;17.58;100.00;101992.41;5012774;28;20879;-47
2022/08/13 02:26:08;;;;;;;9.23;8.43;;;;;;;17.53;100.00;101993.00;5013381;28;20444;-49
2022/08/13 02:28:39;;;;;;;10.60;9.70;;;;;;;17.49;100.00;101994.50;5012706;28;20551;-47
2022/08/13 02:31:10;;;;;;;9.63;8.87;;;;;;;17.47;100.00;101988.47;5012894;28;20457;-47
2022/08/13 02:33:53;;;;;;;11.30;10.50;;;;;;;17.44;100.00;101999.66;5011588;28;20957;-48
2022/08/13 02:36:24;;;;;;;14.00;12.77;;;;;;;17.44;100.00;101993.47;5001116;28;20787;-44
2022/08/13 02:38:55;;;;;;;12.80;11.70;;;;;;;17.44;100.00;101991.56;5010331;28;20465;-46
2022/08/13 02:41:41;;;;;;;13.30;11.90;;;;;;;17.42;100.00;101993.66;5012684;28;20999;-48
2022/08/13 02:44:21;;;;;;;11.73;10.87;;;;;;;17.43;100.00;101989.94;5012687;28;20515;-46
2022/08/13 02:47:02;;;;;;;13.30;12.03;;;;;;;17.43;100.00;101989.09;5012945;28;20459;-49
2022/08/13 02:49:30;;;;;;;12.30;11.30;;;;;;;17.43;100.00;101987.25;5012137;28;20464;-49
2022/08/13 02:52:14;;;;;;;15.13;13.70;;;;;;;17.42;100.00;101988.28;5012312;28;20452;-49
2022/08/13 02:54:44;;;;;;;13.97;12.60;;;;;;;17.41;100.00;101988.50;5012404;28;20472;-49
2022/08/13 02:57:23;;;;;;;18.20;13.90;;;;;;;17.44;100.00;101988.06;5012557;28;20440;-45
2022/08/13 02:59:52;;;;;;;15.20;13.73;;;;;;;17.43;100.00;101991.81;5012067;28;20468;-50
2022/08/13 03:02:37;;;;;;;15.53;14.10;;;;;;;17.42;100.00;101984.75;5012241;28;20480;-45
2022/08/13 03:05:08;;;;;;;16.33;14.80;;;;;;;17.40;100.00;101987.66;5012331;28;20941;-48
2022/08/13 03:07:41;;;;;;;17.70;13.63;;;;;;;17.40;100.00;101984.97;5011867;28;20956;-48
2022/08/13 03:10:20;;;;;;;12.57;11.40;;;;;;;17.33;100.00;101986.00;5012260;28;20425;-49
2022/08/13 03:13:08;;;;;;;17.23;15.17;;;;;;;17.31;100.00;101993.50;5011699;28;20662;-49
2022/08/13 03:15:39;;;;;;;15.07;13.77;;;;;;;17.29;100.00;101996.41;5012217;28;20443;-45
2022/08/13 03:18:22;;;;;;;16.80;15.03;;;;;;;17.28;100.00;101991.22;5011845;28;20830;-48
2022/08/13 03:20:52;;;;;;;15.40;14.10;;;;;;;17.29;100.00;101990.19;5012208;28;20841;-46
2022/08/13 03:23:23;;;;;;;16.77;15.20;;;;;;;17.28;100.00;101983.13;5011827;28;20483;-48
2022/08/13 03:25:52;;;;;;;17.80;16.30;;;;;;;17.27;100.00;101992.25;5011961;28;20429;-48
2022/08/13 03:28:22;;;;;;;14.87;13.67;;;;;;;17.25;100.00;101986.25;5011820;28;20476;-48
2022/08/13 03:30:50;;;;;;;10.93;9.97;;;;;;;17.18;100.00;101986.25;5012185;28;20461;-48
2022/08/13 03:33:23;;;;;;;9.97;9.27;;;;;;;17.12;100.00;101992.47;5011911;28;20437;-47
2022/08/13 03:35:51;;;;;;;10.93;10.03;;;;;;;17.05;100.00;101989.78;5003070;28;20532;-46
2022/08/13 03:38:18;;;;;;;10.23;9.43;;;;;;;16.98;100.00;101983.59;5004762;28;20470;-51
2022/08/13 03:41:08;;;;;;;10.27;9.37;;;;;;;16.92;100.00;101995.19;5012069;28;20452;-50
2022/08/13 03:43:42;;;;;;;10.80;9.83;;;;;;;16.84;100.00;101991.88;5011768;28;20863;-52
2022/08/13 03:46:22;;;;;;;10.23;9.40;;;;;;;16.83;100.00;101990.22;5012035;28;20520;-49
2022/08/13 03:48:55;;;;;;;10.67;9.63;;;;;;;16.82;100.00;101993.94;5011360;28;20472;-48
2022/08/13 03:51:23;;;;;;;15.40;11.10;;;;;;;16.82;100.00;101993.94;5011987;28;20452;-47
2022/08/13 03:54:03;;;;;;;10.80;10.07;;;;;;;16.83;100.00;101998.31;5011778;28;20523;-46
2022/08/13 03:56:31;;;;;;;10.80;10.00;;;;;;;16.83;100.00;101999.13;5011677;28;20464;-46
2022/08/13 03:59:04;;;;;;;12.37;11.30;;;;;;;16.89;100.00;102001.00;5011231;28;20518;-47
2022/08/13 04:01:32;;;;;;;13.57;12.33;;;;;;;16.93;100.00;101994.16;5011713;28;20460;-47
2022/08/13 04:04:02;;;;;;;12.73;11.43;;;;;;;16.96;100.00;101999.16;5011502;28;20982;-48
2022/08/13 04:06:30;;;;;;;12.63;11.23;;;;;;;17.01;100.00;101998.50;5011784;28;20805;-46
2022/08/13 04:09:02;;;;;;;10.20;9.40;;;;;;;17.03;100.00;101999.13;5011295;28;20488;-47
2022/08/13 04:11:29;;;;;;;10.57;8.57;;;;;;;17.03;100.00;101999.13;5011560;28;20546;-49
2022/08/13 04:13:57;;;;;;;9.00;8.10;;;;;;;17.00;100.00;102000.38;5011311;28;20460;-46
2022/08/13 04:16:46;;;;;;;8.70;7.80;;;;;;;17.00;100.00;101994.97;5011718;28;20771;-46
2022/08/13 04:19:15;;;;;;;8.40;7.83;;;;;;;17.00;100.00;101996.84;5011190;28;20464;-46
2022/08/13 04:21:44;;;;;;;9.83;9.03;;;;;;;17.01;100.00;102002.03;5011415;28;21008;-47
2022/08/13 04:24:12;;;;;;;8.27;7.53;;;;;;;17.07;100.00;101995.81;5011712;28;20477;-46
2022/08/13 04:26:43;;;;;;;8.00;7.00;;;;;;;17.10;100.00;101992.69;5015255;28;20437;-46
2022/08/13 04:29:14;;;;;;;8.30;7.70;;;;;;;17.15;100.00;101995.59;5014879;28;20488;-44
2022/08/13 04:31:46;;;;;;;7.73;7.03;;;;;;;17.21;100.00;101996.59;5015234;28;20500;-45
2022/08/13 04:34:21;;;;;;;8.00;7.30;;;;;;;17.26;100.00;101994.13;5010748;28;20836;-48
2022/08/13 04:37:08;;;;;;;7.80;6.73;;;;;;;17.33;100.00;101991.41;5006905;28;21141;-49
2022/08/13 04:39:46;;;;;;;6.90;6.40;;;;;;;17.41;100.00;101991.19;5014796;28;20460;-43
2022/08/13 04:42:48;;;;;;;7.17;6.77;;;;;;;17.51;100.00;101987.00;5015010;28;20459;-49
2022/08/13 04:45:18;;;;;;;8.43;7.63;;;;;;;17.62;100.00;101991.78;5014746;28;20479;-46
2022/08/13 04:47:53;;;;;;;6.70;6.20;;;;;;;17.74;100.00;101986.53;5014606;28;20876;-50
2022/08/13 04:50:23;;;;;;;9.57;8.60;;;;;;;17.86;100.00;101982.13;5014807;28;20479;-49
2022/08/13 04:52:55;;;;;;;8.30;7.50;;;;;;;18.00;100.00;101980.22;5014816;28;20436;-46
2022/08/13 04:55:23;;;;;;;7.23;6.60;;;;;;;18.12;100.00;101981.19;5014732;28;20842;-48
2022/08/13 04:57:50;;;;;;;7.40;6.83;;;;;;;18.26;100.00;101980.06;5014541;28;20460;-50
2022/08/13 05:00:32;;;;;;;7.60;7.20;;;;;;;18.53;100.00;101976.16;5014701;28;20435;-48
2022/08/13 05:03:11;;;;;;;8.10;7.40;;;;;;;19.31;100.00;101977.34;5014496;28;20444;-46
2022/08/13 05:05:39;;;;;;;7.20;6.80;;;;;;;20.38;100.00;101970.41;5014500;28;20471;-47
2022/08/13 05:08:10;;;;;;;6.50;6.00;;;;;;;21.60;100.00;101966.78;5014470;28;20471;-51
2022/08/13 05:10:40;;;;;;;7.43;6.93;;;;;;;22.78;100.00;101971.47;5014729;28;20449;-49
2022/08/13 05:13:20;;;;;;;6.97;6.40;;;;;;;23.84;93.89;101976.53;5014294;28;20437;-44
2022/08/13 05:15:49;;;;;;;7.67;7.17;;;;;;;24.77;83.53;101976.09;5014531;28;20424;-51
2022/08/13 05:18:19;;;;;;;6.10;5.50;;;;;;;25.56;78.73;101970.66;5013708;28;20480;-46
2022/08/13 05:20:59;;;;;;;5.30;4.90;;;;;;;26.28;72.88;101975.25;5014472;28;20456;-47
2022/08/13 05:23:34;;;;;;;7.17;4.47;;;;;;;27.12;70.55;101971.97;5014136;28;20440;-45
2022/08/13 05:26:22;;;;;;;5.80;5.30;;;;;;;27.93;67.67;101973.31;5014430;28;20429;-48
2022/08/13 05:29:06;;;;;;;6.63;4.10;;;;;;;28.45;63.13;101977.41;5013770;28;20484;-49
2022/08/13 05:31:33;;;;;;;5.43;5.00;;;;;;;28.76;57.02;101978.00;5014127;28;20463;-47
2022/08/13 05:34:23;;;;;;;5.23;4.70;;;;;;;29.28;56.99;101988.19;5009411;28;20792;-49
2022/08/13 05:36:52;;;;;;;5.03;4.73;;;;;;;29.69;54.03;101981.09;5003315;28;20426;-48
2022/08/13 05:39:42;;;;;;;5.53;5.00;;;;;;;30.21;54.56;101979.31;5013413;28;20467;-45
2022/08/13 05:42:15;;;;;;;5.23;4.83;;;;;;;30.55;52.65;101980.75;5013940;28;20543;-52
2022/08/13 05:44:47;;;;;;;4.53;4.23;;;;;;;30.98;50.12;101973.09;5013867;28;20479;-50
2022/08/13 05:47:16;;;;;;;5.50;5.10;;;;;;;31.12;45.08;101981.41;5013998;28;20666;-50
2022/08/13 05:49:52;;;;;;;5.30;4.80;;;;;;;31.11;46.82;101979.75;5013814;28;20301;-52
2022/08/13 05:52:25;;;;;;;4.83;4.53;;;;;;;31.21;46.86;101977.63;5013619;28;20225;-52
2022/08/13 05:55:14;;;;;;;4.80;4.47;;;;;;;31.01;42.61;101978.00;5013078;28;20205;-52
2022/08/13 05:58:01;;;;;;;5.40;4.90;;;;;;;31.10;44.73;101978.13;5013131;28;20236;-50
2022/08/13 06:03:36;;;;;;;4.97;4.67;;;;;;;31.40;41.91;101966.50;5013473;28;20663;-48
2022/08/13 06:06:25;;;;;;;4.67;4.27;;;;;;;31.48;44.10;101957.53;5013315;28;20228;-52
2022/08/13 06:09:03;;;;;;;5.37;4.97;;;;;;;31.30;40.33;101961.22;5013109;28;20228;-52
2022/08/13 06:11:39;;;;;;;4.60;4.30;;;;;;;31.58;41.27;101960.09;5012972;28;20223;-53
2022/08/13 06:14:26;;;;;;;5.70;5.10;;;;;;;31.96;44.71;101954.31;5012996;28;20201;-48
2022/08/13 06:16:59;;;;;;;5.25;4.70;;;;;;;32.02;40.65;101955.81;5013476;28;20247;-46
2022/08/13 06:19:29;;;;;;;4.47;4.18;;;;;;;31.36;39.97;101957.22;5012752;28;20243;-50
2022/08/13 06:22:04;;;;;;;5.72;4.55;;;;;;;32.10;41.69;101961.44;5013191;28;20221;-45
2022/08/13 06:24:35;;;;;;;4.85;4.38;;;;;;;32.00;37.73;101961.63;5012557;28;20198;-53
2022/08/13 06:27:19;;;;;;;4.75;4.45;;;;;;;31.99;40.66;101959.19;5013290;28;20202;-52
2022/08/13 06:29:46;;;;;;;4.93;4.53;;;;;;;32.14;38.90;101953.31;5012524;28;20232;-53
2022/08/13 06:32:20;;;;;;;4.53;4.32;;;;;;;32.33;37.68;101957.56;5012601;28;20229;-48
2022/08/13 06:35:08;;;;;;;4.70;4.50;;;;;;;31.98;40.91;101958.38;5005375;28;20197;-49
2022/08/13 06:37:42;;;;;;;4.15;3.80;;;;;;;32.09;39.42;101957.03;5004071;28;20699;-48
2022/08/13 06:40:21;;;;;;;3.85;3.65;;;;;;;31.88;37.06;101957.78;5012491;28;20248;-47
2022/08/13 06:43:00;;;;;;;4.40;4.20;;;;;;;31.89;39.90;101964.94;5012503;28;20197;-50
2022/08/13 06:45:29;;;;;;;4.03;3.75;;;;;;;32.01;39.19;101962.47;5012696;28;20221;-53
2022/08/13 06:48:01;;;;;;;3.50;3.30;;;;;;;32.09;40.93;101965.31;5011367;28;20247;-50
2022/08/13 06:50:34;;;;;;;4.10;3.90;;;;;;;31.99;41.32;101968.28;5012845;28;20625;-50
2022/08/13 06:53:05;;;;;;;4.30;4.10;;;;;;;32.32;38.55;101964.19;5012529;28;20205;-48
2022/08/13 06:55:54;;;;;;;4.22;3.92;;;;;;;32.43;37.40;101969.47;5012806;28;20273;-48
2022/08/13 06:58:45;;;;;;;5.13;4.30;;;;;;;32.66;37.98;101979.41;5012032;28;20231;-52
2022/08/13 07:01:17;;;;;;;5.13;4.68;;;;;;;32.48;37.84;101967.41;5012915;28;20213;-53
2022/08/13 07:03:45;;;;;;;4.30;4.10;;;;;;;32.02;38.87;101966.84;5012297;28;20209;-49
2022/08/13 07:06:27;;;;;;;4.95;4.45;;;;;;;31.52;38.49;101971.53;5012400;28;20217;-48
2022/08/13 07:08:58;;;;;;;3.83;3.63;;;;;;;31.74;37.64;101968.84;5011721;28;20559;-50
2022/08/13 07:11:27;;;;;;;3.78;3.58;;;;;;;31.59;38.56;101964.50;5012102;28;20225;-45
2022/08/13 07:14:07;;;;;;;4.88;4.43;;;;;;;31.56;37.65;101972.56;4993985;28;20201;-53
2022/08/13 07:16:40;;;;;;;4.50;4.13;;;;;;;30.98;39.95;101981.38;4991734;28;20668;-49
2022/08/13 07:19:11;;;;;;;4.93;4.33;;;;;;;31.04;39.18;101974.66;4990843;28;20248;-49
2022/08/13 07:21:41;;;;;;;7.72;5.03;;;;;;;31.17;39.36;101975.78;4991304;28;20222;-51
2022/08/13 07:24:12;;;;;;;4.50;4.20;;;;;;;31.00;38.53;101973.66;4994134;28;20726;-51
2022/08/13 07:27:04;;;;;;;6.72;4.53;;;;;;;30.73;39.12;101981.81;4991501;28;20218;-51
2022/08/13 07:29:33;;;;;;;7.33;4.77;;;;;;;30.33;41.11;101983.25;4990760;28;20228;-52
2022/08/13 07:32:03;;;;;;;6.47;4.30;;;;;;;29.96;41.47;101978.56;4991096;28;20226;-50
2022/08/13 07:34:35;;;;;;;4.97;4.57;;;;;;;29.81;42.54;101975.19;4985781;28;20244;-48
2022/08/13 07:37:04;;;;;;;4.90;4.60;;;;;;;29.96;41.54;101975.81;5001323;28;20787;-50
2022/08/13 07:39:35;;;;;;;5.07;4.67;;;;;;;29.91;42.65;101980.56;5010240;28;20583;-48
2022/08/13 07:42:21;;;;;;;7.37;4.13;;;;;;;29.87;42.08;101980.34;5010777;28;20308;-47
2022/08/13 07:45:06;;;;;;;5.93;5.53;;;;;;;29.40;42.59;101992.19;5011315;28;20193;-51
2022/08/13 07:47:55;;;;;;;5.03;4.47;;;;;;;28.95;44.30;101989.88;5042703;22;20223;-43
2022/08/13 07:50:44;;;;;;;6.70;4.90;;;;;;;28.28;45.68;101988.78;5030404;28;20666;-45
2022/08/13 07:53:32;;;;;;;5.40;5.10;;;;;;;27.98;46.05;101992.50;5028286;28;20201;-45
2022/08/13 07:56:25;;;;;;;5.60;5.20;;;;;;;27.86;46.02;101982.97;5029499;28;20747;-44
2022/08/13 07:59:00;;;;;;;7.73;4.70;;;;;;;27.46;47.91;101994.91;5032645;28;20462;-41
2022/08/13 08:01:33;;;;;;;5.50;5.07;;;;;;;26.80;50.71;102003.22;5035368;28;20450;-43
2022/08/13 08:04:24;;;;;;;8.50;4.47;;;;;;;26.67;49.86;102002.91;5031078;28;20431;-41
2022/08/13 08:07:01;;;;;;;4.73;4.33;;;;;;;26.42;51.96;102000.97;5035243;28;20507;-43
2022/08/13 08:09:31;;;;;;;5.00;4.70;;;;;;;26.47;51.35;102000.16;5034646;28;21011;-42
2022/08/13 08:14:55;;;;;;;5.27;4.80;;;;;;;26.61;52.38;102007.53;5035101;28;20435;-40
2022/08/13 08:17:26;;;;;;;4.63;4.33;;;;;;;26.83;52.48;102004.56;5035019;28;20501;-45
2022/08/13 08:20:21;;;;;;;6.27;4.87;;;;;;;27.15;51.04;101996.88;5034491;28;20466;-42
2022/08/13 08:23:05;;;;;;;5.17;4.97;;;;;;;27.37;50.05;102002.03;5034228;28;20577;-43
2022/08/13 08:25:41;;;;;;;4.87;4.40;;;;;;;27.53;50.12;102006.41;5034402;28;20435;-44
2022/08/13 08:28:30;;;;;;;5.20;4.70;;;;;;;27.61;49.30;101997.59;5034135;28;20458;-44
2022/08/13 08:31:06;;;;;;;5.53;5.10;;;;;;;27.11;50.95;102003.19;5035152;28;20530;-41
2022/08/13 08:33:56;;;;;;;6.50;4.57;;;;;;;26.79;51.95;102000.75;5034276;28;20440;-42
2022/08/13 08:36:24;;;;;;;6.17;4.80;;;;;;;27.01;50.69;102006.75;5034174;28;20534;-41
2022/08/13 08:44:44;;;;;;;5.33;4.17;;;;;;;27.32;49.80;102008.34;5033883;28;20852;-43
2022/08/13 08:47:12;;;;;;;5.50;5.00;;;;;;;27.48;49.53;102013.81;5034089;28;20486;-42
2022/08/13 08:49:43;;;;;;;5.73;5.27;;;;;;;27.67;48.90;102012.91;5046107;28;20469;-41
2022/08/13 08:52:13;;;;;;;4.60;4.40;;;;;;;27.56;48.52;102005.84;5053537;28;20437;-41
2022/08/13 08:54:45;;;;;;;5.13;4.83;;;;;;;27.54;48.78;102015.44;5054233;28;20811;-40
2022/08/13 08:57:14;;;;;;;5.20;4.70;;;;;;;27.42;49.76;102008.34;5044165;28;20517;-42
2022/08/13 08:59:46;;;;;;;4.80;4.50;;;;;;;27.45;50.13;102010.53;5033781;28;20463;-45
2022/08/13 09:02:21;;;;;;;5.20;4.40;;;;;;;27.53;49.74;102006.41;5034208;28;20432;-41
2022/08/13 09:04:54;;;;;;;5.13;4.40;;;;;;;27.61;50.46;102007.72;5033933;28;20432;-44
2022/08/13 09:07:36;;;;;;;4.70;4.40;;;;;;;27.45;48.91;102005.03;5033307;28;21019;-41
2022/08/13 09:10:05;;;;;;;5.57;4.97;;;;;;;27.37;52.28;102013.81;5033406;28;20439;-42
2022/08/13 09:12:36;;;;;;;5.47;4.93;;;;;;;27.58;50.19;102013.78;5033911;28;20442;-43
2022/08/13 09:15:07;;;;;;;5.47;4.53;;;;;;;27.38;50.38;102009.97;5033893;28;20949;-43
2022/08/13 09:17:35;;;;;;;10.90;4.73;;;;;;;27.29;49.59;102008.91;5033405;28;20443;-41
2022/08/13 09:20:12;;;;;;;6.37;3.90;;;;;;;27.36;51.56;102003.13;5033942;28;20435;-42
2022/08/13 09:22:44;;;;;;;5.17;4.70;;;;;;;27.52;51.71;102002.00;5033546;28;20424;-44
2022/08/13 09:25:23;;;;;;;7.33;3.77;;;;;;;27.91;49.15;102005.69;5033866;28;20412;-44
2022/08/13 09:27:53;;;;;;;4.90;4.23;;;;;;;27.75;49.16;102004.09;5033100;28;20459;-43
2022/08/13 09:30:45;;;;;;;6.83;4.40;;;;;;;27.74;50.76;101998.94;5005936;28;20466;-42
2022/08/13 09:33:17;;;;;;;5.83;4.70;;;;;;;27.70;50.42;102000.56;5033233;28;20471;-42
2022/08/13 09:36:09;;;;;;;4.57;4.10;;;;;;;27.99;49.54;101996.88;5033563;28;20459;-44
2022/08/13 09:38:44;;;;;;;5.10;4.60;;;;;;;28.29;48.51;101992.31;5033367;28;20446;-42
2022/08/13 09:41:20;;;;;;;4.83;4.53;;;;;;;27.99;51.01;101998.78;5033423;28;20463;-43
2022/08/13 09:43:49;;;;;;;4.20;3.80;;;;;;;28.00;52.24;101992.22;5033065;28;20434;-41
2022/08/13 09:46:23;;;;;;;4.50;4.20;;;;;;;28.00;52.37;101995.78;5033154;28;21089;-44
2022/08/13 09:48:57;;;;;;;4.43;4.10;;;;;;;28.24;49.42;101990.44;5032887;28;20428;-42
2022/08/13 09:51:34;;;;;;;4.63;4.23;;;;;;;28.35;48.15;101992.00;5032979;28;20479;-41
2022/08/13 09:54:23;;;;;;;4.63;4.33;;;;;;;28.57;47.65;101994.31;5033062;28;20459;-41
2022/08/13 09:56:57;;;;;;;5.63;5.07;;;;;;;28.82;47.87;101996.88;5033266;28;20458;-41
2022/08/13 09:59:26;;;;;;;4.13;3.90;;;;;;;28.92;45.37;101987.72;5033416;28;20438;-43
2022/08/13 10:02:00;;;;;;;4.47;4.10;;;;;;;28.88;42.72;101990.22;5031644;28;20501;-41
2022/08/13 10:04:29;;;;;;;4.03;3.70;;;;;;;28.96;43.74;101986.88;5032908;28;20420;-45
2022/08/13 10:07:01;;;;;;;10.20;5.17;;;;;;;29.14;43.28;101977.06;5032818;28;20510;-43
2022/08/13 10:09:43;;;;;;;8.07;3.90;;;;;;;29.24;41.40;101979.72;5033030;28;20805;-44
2022/08/13 10:12:31;;;;;;;7.43;4.07;;;;;;;29.31;42.43;101982.94;5032148;28;20459;-44
2022/08/13 10:14:59;;;;;;;3.67;3.47;;;;;;;29.35;42.65;101973.03;5032721;28;20917;-44
2022/08/13 10:17:43;;;;;;;7.23;4.20;;;;;;;29.27;42.98;101975.59;5032453;28;20459;-42
2022/08/13 10:20:18;;;;;;;4.50;4.10;;;;;;;29.37;41.32;101967.22;5033016;28;20539;-41
2022/08/13 10:22:47;;;;;;;3.80;3.60;;;;;;;29.46;39.12;101960.78;5030809;28;20475;-43
2022/08/13 10:25:16;;;;;;;3.53;3.20;;;;;;;29.61;37.77;101960.59;5032562;28;20518;-42
2022/08/13 10:27:46;;;;;;;3.40;3.20;;;;;;;29.78;37.80;101960.09;5032278;28;20905;-44
2022/08/13 10:30:26;;;;;;;3.90;3.60;;;;;;;29.80;36.34;101949.63;5032829;28;20467;-44
2022/08/13 10:33:16;;;;;;;3.43;3.23;;;;;;;30.01;35.74;101952.94;5032030;28;20975;-42
2022/08/13 10:35:46;;;;;;;3.47;3.27;;;;;;;30.11;37.49;101947.25;5034221;28;20785;-41
2022/08/13 10:38:20;;;;;;;4.10;3.90;;;;;;;30.11;37.79;101942.59;5049467;28;20441;-43
2022/08/13 10:40:53;;;;;;;3.70;3.40;;;;;;;30.21;38.10;101944.38;5035047;28;20853;-43
2022/08/13 10:43:21;;;;;;;4.10;3.80;;;;;;;30.23;37.55;101939.38;5051445;28;20435;-42
2022/08/13 10:45:56;;;;;;;5.83;3.67;;;;;;;30.25;37.81;101934.41;5052016;28;20455;-42
2022/08/13 10:48:35;;;;;;;3.83;3.37;;;;;;;30.27;37.74;101939.59;5052221;28;20470;-43
2022/08/13 10:51:03;;;;;;;4.13;3.93;;;;;;;30.25;36.23;101936.34;5051636;28;20490;-43
2022/08/13 10:56:20;;;;;;;8.00;4.23;;;;;;;30.52;34.99;101930.97;5051777;28;20446;-42
2022/08/13 10:58:53;;;;;;;5.33;3.47;;;;;;;30.65;35.54;101932.91;5051648;28;20921;-43
2022/08/13 11:01:23;;;;;;;3.70;3.40;;;;;;;30.64;36.02;101934.84;5050934;28;20458;-42
2022/08/13 11:03:53;;;;;;;6.53;3.50;;;;;;;30.69;35.77;101934.78;5051322;28;20462;-43
2022/08/13 11:06:34;;;;;;;3.20;3.00;;;;;;;30.75;36.72;101934.69;5055582;28;20446;-45
2022/08/13 11:09:06;;;;;;;3.57;3.37;;;;;;;30.58;35.15;101936.09;5071770;28;20470;-42
2022/08/13 11:11:55;;;;;;;3.70;3.50;;;;;;;30.85;33.21;101932.56;5071264;28;20824;-42
2022/08/13 11:14:25;;;;;;;3.97;3.17;;;;;;;31.06;31.78;101936.56;5071040;28;20917;-42
2022/08/13 11:17:03;;;;;;;3.17;3.00;;;;;;;30.88;36.19;101929.22;5063569;28;20215;-43
2022/08/13 11:19:44;;;;;;;3.87;3.67;;;;;;;30.73;32.89;101926.75;5051690;28;20949;-44
2022/08/13 11:22:20;;;;;;;3.93;3.03;;;;;;;30.70;35.23;101927.34;5050900;28;20863;-42
2022/08/13 11:24:54;;;;;;;3.73;3.43;;;;;;;30.88;32.55;101925.63;5051060;28;20509;-41
2022/08/13 11:27:21;;;;;;;6.27;3.57;;;;;;;30.93;32.48;101925.53;5051175;28;20470;-40
2022/08/13 11:29:53;;;;;;;3.33;3.20;;;;;;;31.02;32.80;101913.53;5051509;28;21000;-42
2022/08/13 11:32:22;;;;;;;5.10;3.77;;;;;;;31.14;32.24;101915.78;5050556;28;20467;-43
2022/08/13 11:34:55;;;;;;;5.00;3.20;;;;;;;31.06;35.22;101920.03;5052315;28;20437;-43
2022/08/13 11:37:24;;;;;;;4.13;3.53;;;;;;;31.07;34.35;101927.19;5062995;28;20450;-41
2022/08/13 11:39:52;;;;;;;4.00;3.80;;;;;;;30.82;35.41;101910.31;5070550;28;20535;-41
2022/08/13 11:42:39;;;;;;;3.40;3.20;;;;;;;30.90;34.06;101921.44;5070894;28;20465;-42
2022/08/13 11:45:09;;;;;;;3.70;3.40;;;;;;;30.96;33.79;101914.75;5071817;28;20434;-41
2022/08/13 11:47:40;;;;;;;3.50;3.20;;;;;;;30.94;31.73;101928.03;5071636;28;20227;-41
2022/08/13 11:50:14;;;;;;;4.90;3.73;;;;;;;31.08;31.49;101917.00;5071952;28;20417;-42
2022/08/13 11:52:57;;;;;;;3.90;3.60;;;;;;;31.18;32.30;101911.28;5071339;28;20791;-41
2022/08/13 11:55:25;;;;;;;5.10;3.50;;;;;;;31.12;32.01;101907.81;5071466;28;20195;-41
2022/08/13 11:57:59;;;;;;;4.20;3.70;;;;;;;31.11;31.81;101899.84;5072160;28;20544;-43
2022/08/13 12:00:28;;;;;;;3.97;3.67;;;;;;;31.18;32.36;101908.53;5069318;28;20210;-41
2022/08/13 12:03:00;;;;;;;3.47;3.27;;;;;;;31.09;30.47;101894.63;5071525;28;20454;-44
2022/08/13 12:05:29;;;;;;;4.80;3.70;;;;;;;31.30;30.17;101905.25;5071568;28;20457;-42
2022/08/13 12:07:59;;;;;;;3.50;3.40;;;;;;;31.30;30.71;101905.25;5071720;28;20222;-41
2022/08/13 12:10:28;;;;;;;3.33;3.13;;;;;;;31.37;30.96;101898.19;5070656;28;20445;-43
2022/08/13 12:13:16;;;;;;;4.93;3.03;;;;;;;31.43;31.14;101901.66;5071605;28;20206;-42